Time;durP1;ratioP1;P1;durP2;ratioP2;P2;SDS_P1;SDS_P2;PMS_P1;PMS_P2;Temp;Humidity;BMP_temperature;BMP_pressure;BME280_temperature;BME280_humidity;BME280_pressure;Samples;Min_cycle;Max_cycle;Signal;HPM_P1;HPM_P2
2021/08/26 00:00:34;;;;;;;0.10;0.10;;;;;;;14.14;83.75;99440.63;4950018;28;20094;-78
2021/08/26 00:05:48;;;;;;;0.10;0.10;;;;;;;14.10;83.36;99420.28;4954174;28;20425;-76
2021/08/26 00:08:22;;;;;;;0.20;0.20;;;;;;;14.05;84.49;99411.81;4950035;28;20071;-76
2021/08/26 00:10:48;;;;;;;0.20;0.20;;;;;;;13.98;84.56;99413.56;4947246;28;20042;-77
2021/08/26 00:13:15;;;;;;;0.10;0.10;;;;;;;13.98;84.56;99405.41;4934169;28;20469;-77
2021/08/26 00:15:43;;;;;;;0.20;0.20;;;;;;;13.99;84.02;99404.38;4942938;28;20533;-77
2021/08/26 00:18:09;;;;;;;0.10;0.10;;;;;;;14.01;84.25;99396.91;4942720;28;20035;-78
2021/08/26 00:20:35;;;;;;;0.20;0.20;;;;;;;14.00;83.81;99389.75;4936594;28;20050;-78
2021/08/26 00:23:01;;;;;;;0.10;0.10;;;;;;;13.99;83.90;99391.63;4938680;28;20035;-77
2021/08/26 00:25:27;;;;;;;0.20;0.20;;;;;;;13.92;84.72;99408.81;4954864;28;20047;-77
2021/08/26 00:27:53;;;;;;;0.10;0.10;;;;;;;13.96;84.81;99407.44;4936834;29;20050;-77
2021/08/26 00:30:20;;;;;;;0.10;0.10;;;;;;;14.06;84.56;99408.06;4938097;28;20047;-78
2021/08/26 00:32:46;;;;;;;0.20;0.20;;;;;;;14.00;84.91;99411.50;4950827;28;20509;-78
2021/08/26 00:35:12;;;;;;;0.20;0.20;;;;;;;14.10;84.65;99406.69;4949890;28;20095;-76
2021/08/26 00:37:38;;;;;;;0.20;0.20;;;;;;;14.09;84.80;99405.00;4949575;28;20068;-78
2021/08/26 00:40:05;;;;;;;0.20;0.20;;;;;;;14.08;83.85;99408.75;4957314;28;20064;-77
2021/08/26 00:42:31;;;;;;;0.10;0.10;;;;;;;14.10;83.67;99406.69;4955820;28;20058;-77
2021/08/26 00:44:57;;;;;;;0.20;0.20;;;;;;;13.93;84.76;99402.34;4951501;28;20440;-78
2021/08/26 00:47:26;;;;;;;0.20;0.20;;;;;;;13.95;84.54;99403.88;4955900;28;20035;-77
2021/08/26 00:49:55;;;;;;;0.20;0.20;;;;;;;13.97;84.09;99407.28;4937557;28;20047;-80
2021/08/26 00:52:22;;;;;;;0.20;0.20;;;;;;;13.98;84.05;99397.25;4957324;28;20089;-77
2021/08/26 00:54:48;;;;;;;0.20;0.20;;;;;;;14.04;83.99;99392.94;4931783;29;20067;-78
2021/08/26 00:57:14;;;;;;;0.20;0.20;;;;;;;14.04;83.86;99396.53;4951304;28;20081;-77
2021/08/26 00:59:40;;;;;;;0.20;0.20;;;;;;;14.02;83.71;99393.16;4931097;28;20078;-77
2021/08/26 01:02:13;;;;;;;0.20;0.20;;;;;;;13.99;83.94;99399.78;4945741;28;20118;-77
2021/08/26 01:04:50;;;;;;;0.20;0.20;;;;;;;13.98;84.41;99386.38;4940148;28;20135;-77
2021/08/26 01:07:36;;;;;;;0.20;0.20;;;;;;;14.01;84.55;99385.19;4951115;28;20086;-78
2021/08/26 01:10:07;;;;;;;0.20;0.20;;;;;;;14.01;84.42;99380.59;4972535;28;20042;-75
2021/08/26 01:12:34;;;;;;;0.13;0.13;;;;;;;14.00;84.15;99378.88;4937498;28;20037;-77
2021/08/26 01:15:01;;;;;;;0.20;0.20;;;;;;;13.95;84.33;99384.84;4960492;28;20043;-78
2021/08/26 01:17:29;;;;;;;0.20;0.20;;;;;;;13.92;84.11;99387.09;4952587;28;20042;-79
2021/08/26 01:20:00;;;;;;;0.20;0.20;;;;;;;13.94;84.65;99374.19;4930017;28;20589;-76
2021/08/26 01:22:37;;;;;;;0.20;0.20;;;;;;;13.89;84.84;99377.41;4960962;28;20090;-78
2021/08/26 01:25:13;;;;;;;0.20;0.20;;;;;;;13.91;84.55;99379.97;4908856;29;20043;-77
2021/08/26 01:27:54;;;;;;;0.20;0.20;;;;;;;13.94;84.73;99391.31;4950185;28;20042;-77
2021/08/26 01:30:22;;;;;;;0.20;0.20;;;;;;;13.97;84.83;99379.25;4943441;28;20055;-78
2021/08/26 01:32:50;;;;;;;0.20;0.20;;;;;;;13.92;84.97;99378.94;4929243;28;20102;-77
2021/08/26 01:35:16;;;;;;;0.20;0.20;;;;;;;13.93;84.23;99372.47;4973950;28;20450;-79
2021/08/26 01:37:43;;;;;;;0.20;0.20;;;;;;;13.91;84.55;99366.38;4948411;28;20043;-78
2021/08/26 01:40:10;;;;;;;0.35;0.20;;;;;;;13.88;84.58;99372.16;4954555;28;20146;-75
2021/08/26 01:42:38;;;;;;;0.20;0.20;;;;;;;13.90;84.86;99356.53;4928551;28;20067;-78
2021/08/26 01:45:06;;;;;;;0.20;0.20;;;;;;;13.83;84.52;99358.28;4947064;28;20082;-78
2021/08/26 01:47:32;;;;;;;0.20;0.20;;;;;;;13.83;84.27;99367.28;4951442;28;20053;-77
2021/08/26 01:49:59;;;;;;;0.20;0.20;;;;;;;13.80;84.70;99361.34;4936365;28;20095;-79
2021/08/26 01:52:26;;;;;;;0.20;0.20;;;;;;;13.80;84.97;99355.94;4919109;28;20142;-76
2021/08/26 01:54:57;;;;;;;0.20;0.20;;;;;;;13.78;85.28;99358.81;4953548;28;20115;-78
2021/08/26 01:57:27;;;;;;;0.20;0.20;;;;;;;13.80;85.21;99369.50;4954871;28;20039;-79
2021/08/26 01:59:53;;;;;;;0.10;0.10;;;;;;;13.81;85.06;99377.47;4936169;28;20093;-77
2021/08/26 02:02:19;;;;;;;0.15;0.15;;;;;;;13.86;85.23;99363.38;4935377;28;20054;-77
2021/08/26 02:04:45;;;;;;;0.20;0.20;;;;;;;13.86;84.94;99361.50;4951190;28;20039;-79
2021/08/26 02:07:11;;;;;;;0.20;0.20;;;;;;;13.84;85.36;99368.13;4957687;28;20421;-76
2021/08/26 02:09:36;;;;;;;0.20;0.20;;;;;;;13.87;85.01;99367.78;4960847;28;20034;-77
2021/08/26 02:12:03;;;;;;;0.20;0.20;;;;;;;13.90;84.97;99367.41;4923629;28;20154;-77
2021/08/26 02:14:28;;;;;;;0.20;0.20;;;;;;;13.92;84.36;99362.63;4937068;28;20174;-78
2021/08/26 02:16:54;;;;;;;0.20;0.20;;;;;;;13.90;84.24;99370.13;4957418;28;20272;-76
2021/08/26 02:19:20;;;;;;;0.20;0.20;;;;;;;13.91;84.14;99366.38;4947616;28;20035;-78
2021/08/26 02:21:46;;;;;;;0.20;0.20;;;;;;;13.90;84.23;99364.69;4973508;28;20073;-78
2021/08/26 02:24:12;;;;;;;0.20;0.20;;;;;;;13.94;84.83;99371.47;4957976;28;20043;-80
2021/08/26 02:26:37;;;;;;;0.20;0.20;;;;;;;13.94;84.32;99375.03;4953193;28;20062;-77
2021/08/26 02:29:04;;;;;;;0.20;0.20;;;;;;;13.97;84.11;99379.25;4954157;28;20181;-76
2021/08/26 02:31:31;;;;;;;0.22;0.20;;;;;;;14.01;83.85;99377.88;4968236;28;20059;-77
2021/08/26 02:33:57;;;;;;;0.20;0.20;;;;;;;14.02;83.88;99379.56;4944847;28;20047;-77
2021/08/26 02:36:23;;;;;;;0.20;0.20;;;;;;;14.02;83.68;99386.88;4948546;28;20091;-79
2021/08/26 02:38:49;;;;;;;0.20;0.20;;;;;;;14.03;83.53;99394.00;4953909;28;20039;-77
2021/08/26 02:41:15;;;;;;;0.20;0.20;;;;;;;14.03;83.40;99389.38;4942386;28;20248;-78
2021/08/26 02:43:41;;;;;;;0.20;0.20;;;;;;;14.03;83.39;99389.38;4959760;28;20162;-77
2021/08/26 02:46:07;;;;;;;0.20;0.20;;;;;;;14.03;83.88;99392.09;4944582;28;20523;-77
2021/08/26 02:48:33;;;;;;;0.20;0.20;;;;;;;13.98;83.70;99383.66;4952012;28;20054;-79
2021/08/26 02:50:58;;;;;;;0.20;0.20;;;;;;;14.02;84.11;99390.44;4919739;28;20424;-78
2021/08/26 02:53:24;;;;;;;0.20;0.20;;;;;;;14.00;83.82;99389.75;4954277;28;20035;-77
2021/08/26 02:55:50;;;;;;;0.20;0.20;;;;;;;13.99;84.18;99382.63;4940014;28;20145;-79
2021/08/26 02:58:16;;;;;;;0.20;0.20;;;;;;;13.94;84.35;99377.75;4949750;28;20035;-79
2021/08/26 03:00:42;;;;;;;0.20;0.20;;;;;;;13.93;83.57;99378.78;4924675;28;20051;-78
2021/08/26 03:03:08;;;;;;;0.10;0.10;;;;;;;13.94;83.35;99387.78;4959794;28;20046;-78
2021/08/26 03:05:33;;;;;;;0.20;0.20;;;;;;;13.95;84.01;99389.44;4953447;28;20111;-77
2021/08/26 03:07:59;;;;;;;0.20;0.20;;;;;;;13.92;83.79;99382.50;4947456;28;20178;-76
2021/08/26 03:10:26;;;;;;;0.20;0.20;;;;;;;13.94;83.66;99391.31;4946339;28;20051;-77
2021/08/26 03:12:52;;;;;;;0.20;0.20;;;;;;;13.96;83.57;99389.25;4949600;28;20035;-78
2021/08/26 03:15:18;;;;;;;0.20;0.20;;;;;;;13.98;83.34;99397.25;4942640;28;20437;-78
2021/08/26 03:17:43;;;;;;;0.20;0.20;;;;;;;13.98;83.54;99389.09;4958054;28;20032;-77
2021/08/26 03:20:10;;;;;;;0.20;0.20;;;;;;;14.02;83.32;99381.44;4941080;28;20058;-76
2021/08/26 03:22:35;;;;;;;0.20;0.20;;;;;;;14.03;83.15;99373.09;4950484;28;20095;-77
2021/08/26 03:25:02;;;;;;;0.20;0.20;;;;;;;14.05;82.89;99384.63;4957486;28;20050;-78
2021/08/26 03:27:28;;;;;;;0.20;0.20;;;;;;;14.07;83.07;99389.88;4948306;28;20418;-79
2021/08/26 03:29:53;;;;;;;0.20;0.20;;;;;;;14.09;83.07;99394.13;4949686;28;20107;-79
2021/08/26 03:32:20;;;;;;;0.20;0.20;;;;;;;14.08;82.65;99397.88;4941776;28;20075;-78
2021/08/26 03:34:46;;;;;;;0.20;0.20;;;;;;;14.08;82.78;99397.88;4958297;28;20066;-79
2021/08/26 03:37:12;;;;;;;0.20;0.20;;;;;;;14.07;82.94;99390.72;4953396;28;20054;-79
2021/08/26 03:39:38;;;;;;;0.20;0.20;;;;;;;14.07;83.26;99390.72;4957620;28;20130;-81
2021/08/26 03:42:04;;;;;;;0.20;0.20;;;;;;;14.03;82.96;99389.38;4964321;28;20598;-79
2021/08/26 03:44:29;;;;;;;0.20;0.20;;;;;;;14.06;83.31;99394.47;4961244;28;20042;-79
2021/08/26 03:46:55;;;;;;;0.30;0.30;;;;;;;14.06;83.10;99399.06;4946381;28;20055;-77
2021/08/26 03:49:21;;;;;;;0.20;0.20;;;;;;;14.08;82.81;99397.88;4945546;28;20035;-78
2021/08/26 03:51:47;;;;;;;0.20;0.20;;;;;;;14.11;83.08;99400.19;4952291;28;20047;-78
2021/08/26 03:54:13;;;;;;;0.20;0.20;;;;;;;14.15;82.84;99407.00;4958328;28;20137;-79
2021/08/26 03:56:38;;;;;;;0.20;0.20;;;;;;;14.15;83.19;99397.97;4950261;28;20054;-80
2021/08/26 03:59:04;;;;;;;0.20;0.20;;;;;;;14.19;82.75;99405.59;4959723;28;20039;-79
2021/08/26 04:01:32;;;;;;;0.20;0.20;;;;;;;14.24;82.79;99405.91;4949010;28;20038;-78
2021/08/26 04:03:57;;;;;;;0.20;0.20;;;;;;;14.24;82.23;99396.91;4947955;28;20110;-81
2021/08/26 04:06:23;;;;;;;0.20;0.20;;;;;;;14.30;82.44;99406.22;4949786;28;20444;-77
2021/08/26 04:08:49;;;;;;;0.20;0.20;;;;;;;14.30;81.93;99406.22;4945905;28;20290;-79
2021/08/26 04:11:15;;;;;;;0.17;0.17;;;;;;;14.32;82.22;99399.56;4962384;28;20048;-78
2021/08/26 04:13:41;;;;;;;0.20;0.20;;;;;;;14.39;82.31;99405.13;4930418;28;20090;-80
2021/08/26 04:16:06;;;;;;;0.20;0.20;;;;;;;14.39;82.11;99402.41;4962182;28;20137;-78
2021/08/26 04:18:32;;;;;;;0.20;0.20;;;;;;;14.42;82.17;99399.31;4943123;28;20094;-81
2021/08/26 04:20:58;;;;;;;0.20;0.20;;;;;;;14.50;81.77;99403.88;4920857;28;20182;-78
2021/08/26 04:23:24;;;;;;;0.20;0.20;;;;;;;14.52;81.58;99405.41;4953828;28;20477;-82
2021/08/26 04:25:50;;;;;;;0.20;0.20;;;;;;;14.52;81.21;99399.94;4953976;28;20051;-79
2021/08/26 04:28:16;;;;;;;0.20;0.20;;;;;;;14.62;81.47;99405.13;4958439;28;20091;-81
2021/08/26 04:30:41;;;;;;;0.20;0.20;;;;;;;14.74;81.12;99405.56;4978948;28;20063;-79
2021/08/26 04:33:07;;;;;;;0.20;0.20;;;;;;;14.78;80.88;99409.59;4975240;28;20117;-79
2021/08/26 04:35:37;;;;;;;0.20;0.20;;;;;;;14.85;80.73;99410.53;4965968;28;20047;-78
2021/08/26 04:38:03;;;;;;;0.20;0.20;;;;;;;14.91;80.56;99407.06;4963553;28;20054;-78
2021/08/26 04:40:31;;;;;;;0.20;0.20;;;;;;;14.99;80.09;99412.44;4974403;28;20034;-77
2021/08/26 04:42:57;;;;;;;0.20;0.20;;;;;;;14.98;79.73;99405.28;4960481;28;20134;-82
2021/08/26 04:45:23;;;;;;;0.20;0.20;;;;;;;15.11;79.51;99396.50;4956642;28;20051;-79
2021/08/26 04:47:52;;;;;;;0.20;0.20;;;;;;;15.20;79.15;99404.38;4954051;28;20102;-78
2021/08/26 04:50:18;;;;;;;0.30;0.30;;;;;;;15.23;78.84;99396.88;4965192;28;20604;-80
2021/08/26 04:52:43;;;;;;;0.30;0.30;;;;;;;15.29;78.54;99393.41;4959719;28;20099;-79
2021/08/26 04:55:09;;;;;;;0.20;0.20;;;;;;;15.47;78.03;99409.34;4950994;28;20070;-79
2021/08/26 04:57:37;;;;;;;0.20;0.20;;;;;;;15.59;77.85;99413.31;4959293;28;20107;-79
2021/08/26 05:00:04;;;;;;;0.30;0.30;;;;;;;15.77;77.57;99415.66;4957215;28;20044;-80
2021/08/26 05:02:30;;;;;;;0.30;0.30;;;;;;;15.97;76.17;99415.88;4964392;28;20078;-80
2021/08/26 05:04:56;;;;;;;0.22;0.22;;;;;;;16.02;75.88;99413.44;4954049;28;20188;-81
2021/08/26 05:07:21;;;;;;;0.30;0.30;;;;;;;16.30;75.20;99416.25;4953691;28;20814;-80
2021/08/26 05:09:47;;;;;;;0.20;0.20;;;;;;;16.37;74.73;99403.53;4948509;28;20070;-80
2021/08/26 05:12:13;;;;;;;0.25;0.25;;;;;;;16.38;74.64;99414.25;4958014;28;20051;-80
2021/08/26 05:14:39;;;;;;;0.20;0.20;;;;;;;16.42;74.54;99424.75;4956665;28;20043;-81
2021/08/26 05:17:08;;;;;;;0.20;0.20;;;;;;;16.33;74.60;99426.78;4965652;28;20157;-79
2021/08/26 05:19:33;;;;;;;0.20;0.20;;;;;;;16.12;75.42;99428.47;4933333;28;20070;-79
2021/08/26 05:22:00;;;;;;;0.20;0.20;;;;;;;15.90;76.07;99415.81;4945935;28;20494;-80
2021/08/26 05:24:26;;;;;;;0.20;0.20;;;;;;;15.85;76.45;99418.28;4950570;28;20094;-81
2021/08/26 05:26:52;;;;;;;0.20;0.20;;;;;;;15.80;76.95;99428.91;4959903;28;20375;-80
2021/08/26 05:29:19;;;;;;;0.20;0.20;;;;;;;15.66;77.61;99426.00;4955419;28;20061;-79
2021/08/26 05:31:45;;;;;;;0.20;0.20;;;;;;;15.60;78.01;99428.59;4960564;28;20051;-81
2021/08/26 05:34:13;;;;;;;0.20;0.20;;;;;;;15.61;78.17;99439.34;4948675;28;20047;-81
2021/08/26 05:36:44;;;;;;;0.20;0.20;;;;;;;15.72;77.91;99439.91;4958878;28;20059;-80
2021/08/26 05:39:09;;;;;;;0.20;0.20;;;;;;;15.71;77.98;99443.66;4961165;28;20050;-81
2021/08/26 05:41:35;;;;;;;0.20;0.20;;;;;;;15.83;77.98;99442.13;4945799;28;20042;-79
2021/08/26 05:44:01;;;;;;;0.20;0.20;;;;;;;15.96;77.22;99436.88;4962063;28;20587;-81
2021/08/26 05:46:27;;;;;;;0.20;0.20;;;;;;;15.95;76.26;99435.19;4945149;28;20047;-79
2021/08/26 05:48:53;;;;;;;0.20;0.20;;;;;;;16.12;76.59;99447.56;4951003;28;20055;-80
2021/08/26 05:51:18;;;;;;;0.30;0.30;;;;;;;16.24;75.92;99438.88;4952411;28;20464;-78
2021/08/26 05:53:44;;;;;;;0.20;0.20;;;;;;;16.29;75.70;99433.66;4950415;28;20043;-82
2021/08/26 05:56:10;;;;;;;0.28;0.28;;;;;;;16.24;75.53;99438.88;4952101;28;20043;-83
2021/08/26 05:58:36;;;;;;;0.30;0.30;;;;;;;16.43;75.20;99443.69;4937389;28;20064;-81
2021/08/26 06:01:02;;;;;;;0.52;0.52;;;;;;;17.03;73.57;99439.63;4944978;28;20057;-80
2021/08/26 06:03:28;;;;;;;0.75;0.75;;;;;;;17.98;70.60;99446.31;4949106;28;20079;-81
2021/08/26 06:05:54;;;;;;;0.38;0.38;;;;;;;18.04;68.53;99440.03;4943754;28;20481;-83
2021/08/26 06:08:19;;;;;;;0.30;0.30;;;;;;;18.41;67.92;99437.84;4953614;28;20114;-80
2021/08/26 06:10:46;;;;;;;0.20;0.20;;;;;;;18.70;66.22;99441.25;4959892;28;20043;-80
2021/08/26 06:13:12;;;;;;;0.60;0.60;;;;;;;18.88;65.90;99444.25;4956963;28;20042;-81
2021/08/26 06:15:38;;;;;;;0.40;0.40;;;;;;;18.93;65.86;99446.34;4961380;28;20062;-79
2021/08/26 06:18:04;;;;;;;0.40;0.40;;;;;;;18.83;66.36;99451.41;4955489;28;20145;-79
2021/08/26 06:20:30;;;;;;;0.20;0.20;;;;;;;18.24;67.77;99464.72;4961306;28;20049;-80
2021/08/26 06:22:56;;;;;;;0.30;0.30;;;;;;;18.49;66.81;99469.66;4963346;28;20047;-82
2021/08/26 06:25:21;;;;;;;0.30;0.30;;;;;;;19.07;65.98;99463.63;4953320;28;20589;-81
2021/08/26 06:27:48;;;;;;;0.30;0.30;;;;;;;19.40;64.00;99456.22;4950367;28;20425;-79
2021/08/26 06:30:14;;;;;;;0.63;0.63;;;;;;;19.99;62.04;99459.88;4946355;28;20477;-81
2021/08/26 06:32:39;;;;;;;0.90;0.90;;;;;;;20.87;59.54;99465.53;4948881;28;20047;-79
2021/08/26 06:35:06;;;;;;;0.20;0.20;;;;;;;20.36;60.03;99457.41;4953758;28;20035;-81
2021/08/26 06:37:32;;;;;;;0.40;0.40;;;;;;;20.45;60.79;99456.94;4947841;28;20302;-81
2021/08/26 06:39:59;;;;;;;0.40;0.40;;;;;;;20.14;60.98;99460.47;4931480;28;20042;-82
2021/08/26 06:42:25;;;;;;;0.30;0.30;;;;;;;20.43;60.76;99453.53;4933243;28;20035;-81
2021/08/26 06:44:51;;;;;;;0.20;0.20;;;;;;;20.14;61.49;99465.09;4948641;28;20039;-80
2021/08/26 06:47:17;;;;;;;0.20;0.20;;;;;;;20.06;61.77;99473.59;4959473;28;20138;-80
2021/08/26 06:49:43;;;;;;;0.20;0.20;;;;;;;19.72;63.08;99468.22;4950977;28;20395;-81
2021/08/26 06:52:09;;;;;;;0.20;0.20;;;;;;;19.52;63.74;99478.34;4946656;28;20039;-81
2021/08/26 06:54:36;;;;;;;0.20;0.20;;;;;;;18.88;65.51;99476.28;4946450;28;20086;-81
2021/08/26 06:57:02;;;;;;;0.20;0.20;;;;;;;18.53;67.36;99470.91;4954367;28;20066;-80
2021/08/26 06:59:28;;;;;;;0.30;0.30;;;;;;;18.77;66.48;99469.53;4950152;28;21187;-83
2021/08/26 07:01:54;;;;;;;0.40;0.40;;;;;;;19.08;65.98;99477.13;4948163;28;20046;-79
2021/08/26 07:04:19;;;;;;;1.10;1.10;;;;;;;20.72;60.18;99478.75;4949181;28;20529;-78
2021/08/26 07:06:45;;;;;;;0.40;0.40;;;;;;;21.27;58.45;99476.22;4941341;28;20038;-81
2021/08/26 07:09:11;;;;;;;0.28;0.28;;;;;;;21.04;58.76;99481.50;4937646;28;20043;-80
2021/08/26 07:11:37;;;;;;;0.63;0.63;;;;;;;21.05;59.14;99480.44;4948203;28;20079;-81
2021/08/26 07:14:03;;;;;;;0.60;0.60;;;;;;;21.14;58.53;99482.69;4945518;28;20038;-82
2021/08/26 07:16:28;;;;;;;0.30;0.30;;;;;;;20.80;59.41;99480.41;4943217;28;20170;-82
2021/08/26 07:18:54;;;;;;;0.25;0.25;;;;;;;20.61;60.57;99476.72;4948932;28;20046;-81
2021/08/26 07:21:23;;;;;;;1.15;1.15;;;;;;;21.63;57.81;99486.50;4944693;28;20040;-80
2021/08/26 07:23:49;;;;;;;0.30;0.30;;;;;;;21.33;57.98;99491.84;4922420;28;20043;-82
2021/08/26 07:26:15;;;;;;;0.20;0.20;;;;;;;21.01;59.32;99493.78;4939300;28;20039;-80
2021/08/26 07:28:41;;;;;;;1.20;1.20;;;;;;;22.08;57.05;99488.09;4944759;28;20062;-79
2021/08/26 07:31:07;;;;;;;1.00;1.00;;;;;;;23.58;52.48;99487.16;4954727;28;20035;-78
2021/08/26 07:33:33;;;;;;;1.00;1.00;;;;;;;24.42;49.95;99497.91;4947788;28;20054;-80
2021/08/26 07:36:00;;;;;;;1.00;1.00;;;;;;;24.94;48.62;99500.56;4952482;28;20114;-81
2021/08/26 07:38:27;;;;;;;1.00;1.00;;;;;;;25.56;46.85;99508.84;4945188;28;20063;-82
2021/08/26 07:40:54;;;;;;;0.90;0.90;;;;;;;25.97;45.90;99526.09;4967643;28;20046;-81
2021/08/26 07:43:23;;;;;;;0.30;0.30;;;;;;;24.86;48.07;99509.25;4952521;28;20135;-84
2021/08/26 07:45:49;;;;;;;0.30;0.30;;;;;;;24.45;49.94;99514.00;4939878;28;20117;-81
2021/08/26 07:48:17;;;;;;;0.70;0.70;;;;;;;24.45;50.63;99519.53;4939816;28;20891;-83
2021/08/26 07:50:45;;;;;;;0.88;0.88;;;;;;;25.74;47.20;99522.41;4955017;28;20039;-84
2021/08/26 07:53:11;;;;;;;1.00;1.00;;;;;;;26.02;46.68;99531.69;4959399;28;20115;-82
2021/08/26 07:55:37;;;;;;;0.20;0.20;;;;;;;25.70;47.62;99515.69;4951194;28;20165;-81
2021/08/26 07:58:04;;;;;;;0.20;0.20;;;;;;;24.09;51.77;99532.53;4945221;28;20050;-81
2021/08/26 08:00:30;;;;;;;0.20;0.20;;;;;;;23.82;52.64;99533.06;4939089;28;20093;-80
2021/08/26 08:02:57;;;;;;;0.63;0.63;;;;;;;24.16;51.68;99530.50;4976597;28;20050;-82
2021/08/26 08:05:24;;;;;;;1.00;1.00;;;;;;;25.58;48.03;99528.78;4958471;28;20095;-79
2021/08/26 08:07:51;;;;;;;0.20;0.20;;;;;;;24.63;50.14;99530.38;4912333;28;20314;-81
2021/08/26 08:10:18;;;;;;;0.20;0.20;;;;;;;23.51;54.07;99525.09;4949402;29;20080;-84
2021/08/26 08:12:44;;;;;;;0.20;0.20;;;;;;;23.39;54.36;99522.31;4933508;28;20054;-83
2021/08/26 08:15:11;;;;;;;0.20;0.20;;;;;;;23.39;54.40;99527.84;4927231;29;20035;-83
2021/08/26 08:17:38;;;;;;;0.20;0.20;;;;;;;23.05;55.12;99526.69;4943483;28;20047;-81
2021/08/26 08:20:06;;;;;;;0.20;0.20;;;;;;;22.66;56.87;99528.09;4928334;29;20035;-81
2021/08/26 08:22:33;;;;;;;0.20;0.20;;;;;;;22.46;57.53;99525.59;4954575;28;20055;-83
2021/08/26 08:25:00;;;;;;;0.20;0.20;;;;;;;22.32;57.97;99531.28;4956685;28;20043;-80
2021/08/26 08:27:26;;;;;;;0.20;0.20;;;;;;;22.10;58.83;99530.03;4958409;28;20051;-83
2021/08/26 08:29:52;;;;;;;0.20;0.20;;;;;;;22.12;59.03;99527.88;4955900;28;20046;-82
2021/08/26 08:32:18;;;;;;;0.20;0.20;;;;;;;22.26;59.11;99529.44;4956540;28;20054;-81
2021/08/26 08:34:44;;;;;;;0.20;0.20;;;;;;;22.15;59.18;99527.44;4922063;28;20046;-82
2021/08/26 08:37:10;;;;;;;0.20;0.20;;;;;;;21.68;60.67;99549.09;4941137;28;20073;-82
2021/08/26 08:39:37;;;;;;;0.15;0.15;;;;;;;21.47;61.33;99535.75;4962076;28;20047;-82
2021/08/26 08:42:23;;;;;;;0.20;0.20;;;;;;;21.31;62.01;99529.69;4956423;28;20039;-85
2021/08/26 08:45:21;;;;;;;0.20;0.20;;;;;;;21.36;62.32;99529.91;4947076;28;20765;-81
2021/08/26 08:47:48;;;;;;;0.10;0.10;;;;;;;21.32;61.93;99542.41;4943734;28;20080;-82
2021/08/26 08:50:15;;;;;;;0.20;0.20;;;;;;;21.06;63.11;99534.34;4965984;28;20050;-82
2021/08/26 08:52:42;;;;;;;0.20;0.20;;;;;;;20.90;63.32;99535.72;4955379;28;20042;-83
2021/08/26 08:55:10;;;;;;;0.20;0.20;;;;;;;20.95;63.56;99538.63;4956617;28;20058;-81
2021/08/26 08:57:40;;;;;;;0.30;0.30;;;;;;;21.46;62.29;99539.56;4954727;28;20677;-83
2021/08/26 09:00:09;;;;;;;0.10;0.10;;;;;;;21.37;63.01;99537.09;4955620;28;20664;-82
2021/08/26 09:02:35;;;;;;;0.20;0.20;;;;;;;21.37;62.94;99553.59;4919111;28;20135;-83
2021/08/26 09:05:02;;;;;;;0.20;0.20;;;;;;;20.91;64.11;99549.25;4920651;28;20031;-81
2021/08/26 09:07:30;;;;;;;0.13;0.13;;;;;;;20.89;64.90;99534.88;4952499;28;20142;-83
2021/08/26 09:09:57;;;;;;;0.10;0.10;;;;;;;20.69;66.22;99540.47;4951096;28;20043;-82
2021/08/26 09:12:41;;;;;;;0.10;0.10;;;;;;;20.48;67.00;99538.88;4957356;28;20058;-80
2021/08/26 09:15:30;;;;;;;0.10;0.10;;;;;;;20.17;69.26;99536.03;4964759;28;20428;-80
2021/08/26 09:18:16;;;;;;;0.10;0.10;;;;;;;19.95;69.95;99547.28;4962437;28;20055;-83
2021/08/26 09:20:54;;;;;;;0.10;0.10;;;;;;;20.07;70.96;99547.47;4932152;28;20040;-80
2021/08/26 09:23:22;;;;;;;0.10;0.10;;;;;;;19.77;72.00;99557.25;4927047;28;20040;-80
2021/08/26 09:25:50;;;;;;;0.10;0.10;;;;;;;19.82;72.44;99546.47;4935058;28;20067;-82
2021/08/26 09:28:27;;;;;;;0.20;0.20;;;;;;;19.73;72.84;99543.13;4946754;28;20058;-81
2021/08/26 09:31:11;;;;;;;0.20;0.20;;;;;;;19.58;73.90;99553.44;4941695;28;20146;-81
2021/08/26 09:33:59;;;;;;;0.17;0.17;;;;;;;19.59;74.60;99550.47;4932673;29;20478;-82
2021/08/26 09:36:30;;;;;;;0.20;0.20;;;;;;;19.45;74.16;99548.78;4947424;28;20043;-81
2021/08/26 09:38:59;;;;;;;0.20;0.20;;;;;;;19.48;73.97;99549.22;4932168;28;20465;-80
2021/08/26 09:41:39;;;;;;;0.20;0.20;;;;;;;19.72;73.85;99555.16;4934264;28;20055;-81
2021/08/26 09:44:24;;;;;;;0.20;0.20;;;;;;;19.80;73.67;99556.84;4952152;28;20054;-83
2021/08/26 09:46:52;;;;;;;0.30;0.30;;;;;;;20.47;72.27;99553.66;4921465;28;20314;-82
2021/08/26 09:49:23;;;;;;;0.30;0.30;;;;;;;20.69;70.74;99551.47;4950837;28;20040;-81
2021/08/26 09:52:15;;;;;;;0.20;0.20;;;;;;;21.17;70.27;99555.59;4954085;28;20508;-82
2021/08/26 09:54:46;;;;;;;0.20;0.20;;;;;;;21.17;69.36;99553.72;4946152;28;20434;-82
2021/08/26 09:57:29;;;;;;;0.20;0.20;;;;;;;20.94;70.40;99554.28;4936184;28;20042;-82
2021/08/26 09:59:59;;;;;;;;;;;;;;;20.78;70.86;99560.31;4950338;28;20118;-82
2021/08/26 10:02:28;;;;;;;0.22;0.22;;;;;;;20.53;71.85;99564.88;4925326;28;19969;-81
2021/08/26 10:04:55;;;;;;;0.20;0.20;;;;;;;20.54;72.09;99558.31;4913479;29;20066;-83
2021/08/26 10:07:28;;;;;;;0.20;0.20;;;;;;;20.63;71.75;99563.34;4943835;28;20131;-83
2021/08/26 10:09:57;;;;;;;0.20;0.20;;;;;;;20.57;71.48;99552.38;4937984;28;20102;-82
2021/08/26 10:12:23;;;;;;;0.20;0.20;;;;;;;20.53;71.48;99551.16;4950597;28;20040;-79
2021/08/26 10:14:53;;;;;;;0.20;0.20;;;;;;;20.69;70.71;99553.38;4945479;28;20042;-80
2021/08/26 10:17:23;;;;;;;0.47;0.47;;;;;;;21.53;67.99;99551.34;4949286;28;20048;-81
2021/08/26 10:19:50;;;;;;;0.30;0.30;;;;;;;21.70;67.64;99552.47;4929441;28;20035;-82
2021/08/26 10:22:16;;;;;;;0.30;0.30;;;;;;;21.77;67.13;99557.91;4951065;28;20031;-82
2021/08/26 10:24:43;;;;;;;0.30;0.30;;;;;;;21.88;66.18;99555.25;4950686;28;20182;-82
2021/08/26 10:27:23;;;;;;;0.28;0.28;;;;;;;21.96;65.86;99561.53;4918582;29;20460;-83
2021/08/26 10:29:52;;;;;;;0.20;0.20;;;;;;;22.07;65.40;99558.00;4940022;28;20047;-80
2021/08/26 10:32:24;;;;;;;0.20;0.20;;;;;;;22.12;65.32;99566.41;4946415;28;20066;-81
2021/08/26 10:35:10;;;;;;;0.20;0.20;;;;;;;22.05;65.53;99565.69;4924811;28;20047;-82
2021/08/26 10:37:55;;;;;;;0.20;0.20;;;;;;;21.89;66.30;99556.91;4948074;28;20075;-82
2021/08/26 10:40:39;;;;;;;0.20;0.20;;;;;;;21.75;67.47;99565.53;4955224;28;20042;-82
2021/08/26 10:43:37;;;;;;;0.20;0.20;;;;;;;21.55;68.18;99560.22;4930829;29;20386;-82
2021/08/26 10:46:06;;;;;;;0.20;0.20;;;;;;;21.49;68.77;99555.63;4940915;28;20127;-82
2021/08/26 10:48:32;;;;;;;0.20;0.20;;;;;;;21.24;68.41;99558.31;4929480;28;20549;-81
2021/08/26 10:51:16;;;;;;;0.20;0.20;;;;;;;21.37;69.14;99569.25;4928628;28;20050;-82
2021/08/26 10:53:49;;;;;;;0.20;0.20;;;;;;;21.16;69.33;99563.03;4949726;28;20062;-82
2021/08/26 10:56:35;;;;;;;0.20;0.20;;;;;;;21.05;69.32;99555.47;4930850;28;20792;-81
2021/08/26 10:59:02;;;;;;;0.10;0.10;;;;;;;21.02;70.34;99557.84;4948784;28;20047;-80
2021/08/26 11:01:29;;;;;;;0.10;0.10;;;;;;;20.56;71.55;99559.78;4946989;28;20047;-82
2021/08/26 11:04:04;;;;;;;0.13;0.13;;;;;;;20.57;71.91;99560.63;4946068;28;20043;-82
2021/08/26 11:06:39;;;;;;;0.10;0.10;;;;;;;20.42;72.19;99553.47;4915136;28;20489;-81
2021/08/26 11:09:11;;;;;;;0.10;0.10;;;;;;;20.28;72.73;99554.59;4933236;28;20047;-82
2021/08/26 11:11:40;;;;;;;0.10;0.10;;;;;;;20.17;73.58;99555.25;4949523;28;20039;-80
2021/08/26 11:14:06;;;;;;;0.10;0.10;;;;;;;20.18;73.77;99562.44;4949826;28;20130;-80
2021/08/26 11:16:39;;;;;;;0.10;0.10;;;;;;;20.13;74.41;99556.75;4934601;28;20142;-79
2021/08/26 11:19:06;;;;;;;0.10;0.10;;;;;;;20.01;74.58;99551.09;4949154;28;20075;-79
2021/08/26 11:21:44;;;;;;;0.10;0.10;;;;;;;19.95;74.45;99549.19;4945847;28;20047;-80
2021/08/26 11:24:33;;;;;;;0.10;0.10;;;;;;;20.01;75.44;99559.31;4944761;28;20379;-80
2021/08/26 11:27:17;;;;;;;0.20;0.20;;;;;;;19.99;74.89;99556.78;4940088;28;20052;-81
2021/08/26 11:29:43;;;;;;;0.10;0.10;;;;;;;19.92;75.39;99555.94;4950290;28;20104;-80
2021/08/26 11:32:12;;;;;;;0.20;0.20;;;;;;;19.85;75.49;99555.13;4930757;28;20576;-84
2021/08/26 11:34:55;;;;;;;0.10;0.10;;;;;;;19.90;75.68;99557.25;4897376;28;20088;-85
2021/08/26 11:37:32;;;;;;;0.10;0.10;;;;;;;19.92;75.88;99566.91;4949740;28;20047;-80
2021/08/26 11:40:04;;;;;;;0.20;0.20;;;;;;;19.91;76.35;99554.28;4941365;28;20051;-81
2021/08/26 11:42:37;;;;;;;0.20;0.20;;;;;;;19.95;76.76;99554.69;4926082;28;20167;-81